createdAt,value
2018-04-02T00:00:56.408Z,95167
2018-04-02T00:03:24.588Z,95167
2018-04-02T00:05:52.824Z,95168
2018-04-02T00:08:21.702Z,95175
2018-04-02T00:10:49.816Z,95180
2018-04-02T00:13:17.900Z,95163
2018-04-02T00:15:45.991Z,95167
2018-04-02T00:18:14.089Z,95169
2018-04-02T00:20:42.275Z,95170
2018-04-02T00:23:10.483Z,95170
2018-04-02T00:25:38.569Z,95172
2018-04-02T00:28:06.722Z,95173
2018-04-02T00:30:34.798Z,95165
2018-04-02T00:33:02.885Z,95168
2018-04-02T00:35:31.014Z,95175
2018-04-02T00:37:59.100Z,95175
2018-04-02T00:40:27.223Z,95173
2018-04-02T00:42:55.301Z,95172
2018-04-02T00:45:23.411Z,95176
2018-04-02T00:47:51.507Z,95173
2018-04-02T00:50:19.603Z,95170
2018-04-02T00:52:47.705Z,95179
2018-04-02T00:55:15.804Z,95177
2018-04-02T00:57:43.912Z,95170
2018-04-02T01:00:12.112Z,95177
2018-04-02T01:02:40.209Z,95169
2018-04-02T01:05:08.291Z,95170
2018-04-02T01:07:36.377Z,95175
2018-04-02T01:10:04.490Z,95165
2018-04-02T01:12:32.638Z,95165
2018-04-02T01:15:00.827Z,95166
2018-04-02T01:17:28.994Z,95172
2018-04-02T01:19:57.089Z,95167
2018-04-02T01:22:25.164Z,95176
2018-04-02T01:24:53.262Z,95178
2018-04-02T01:27:21.360Z,95168
2018-04-02T01:29:50.252Z,95170
2018-04-02T01:32:18.428Z,95167
2018-04-02T01:34:46.536Z,95164
2018-04-02T01:37:14.640Z,95164
2018-04-02T01:39:42.725Z,95148
2018-04-02T01:42:10.840Z,95154
2018-04-02T01:44:38.931Z,95148
2018-04-02T01:47:07.208Z,95158
2018-04-02T01:49:35.366Z,95143
2018-04-02T01:52:03.544Z,95148
2018-04-02T01:54:31.671Z,95145
2018-04-02T01:56:59.803Z,95145
2018-04-02T01:59:27.925Z,95142
2018-04-02T02:01:56.025Z,95136
2018-04-02T02:04:24.112Z,95140
2018-04-02T02:06:52.216Z,95141
2018-04-02T02:09:20.332Z,95142
2018-04-02T02:11:48.435Z,95135
2018-04-02T02:14:16.507Z,95136
2018-04-02T02:16:44.622Z,95139
2018-04-02T02:19:12.705Z,95132
2018-04-02T02:21:41.583Z,95139
2018-04-02T02:24:09.747Z,95140
2018-04-02T02:26:37.843Z,95126
2018-04-02T02:29:05.996Z,95134
2018-04-02T02:31:34.121Z,95135
2018-04-02T02:34:02.278Z,95133
2018-04-02T02:36:30.792Z,95140
2018-04-02T02:38:58.922Z,95128
2018-04-02T02:41:27.785Z,95128
2018-04-02T02:43:55.881Z,95128
2018-04-02T02:46:24.764Z,95134
2018-04-02T02:48:52.843Z,95132
2018-04-02T02:51:21.718Z,95137
2018-04-02T02:53:49.855Z,95132
2018-04-02T02:56:17.957Z,95151
2018-04-02T02:58:46.048Z,95133
2018-04-02T03:01:14.144Z,95137
2018-04-02T03:03:42.249Z,95140
2018-04-02T03:06:10.319Z,95133
2018-04-02T03:08:38.432Z,95139
2018-04-02T03:11:06.536Z,95130
2018-04-02T03:13:34.696Z,95142
2018-04-02T03:16:02.772Z,95145
2018-04-02T03:18:30.871Z,95145
2018-04-02T03:20:58.960Z,95145
2018-04-02T03:23:27.052Z,95140
2018-04-02T03:25:55.146Z,95133
2018-04-02T03:28:23.283Z,95138
2018-04-02T03:30:51.489Z,95127
2018-04-02T03:33:20.326Z,95129
2018-04-02T03:35:48.452Z,95127
2018-04-02T03:38:17.328Z,95132
2018-04-02T03:40:45.419Z,95129
2018-04-02T03:43:13.523Z,95128
2018-04-02T03:45:41.598Z,95116
2018-04-02T03:48:09.696Z,95126
2018-04-02T03:50:37.783Z,95134
2018-04-02T03:53:05.899Z,95128
2018-04-02T03:55:33.980Z,95119
2018-04-02T03:58:02.113Z,95132
2018-04-02T04:00:30.977Z,95130
2018-04-02T04:02:59.065Z,95119
2018-04-02T04:05:27.168Z,95122
2018-04-02T04:07:55.253Z,95120
2018-04-02T04:10:23.381Z,95115
2018-04-02T04:12:51.470Z,95126
2018-04-02T04:15:19.541Z,95117
2018-04-02T04:17:47.642Z,95122
2018-04-02T04:20:15.712Z,95132
2018-04-02T04:22:44.308Z,95130
2018-04-02T04:25:12.451Z,95137
2018-04-02T04:27:40.555Z,95132
2018-04-02T04:30:08.643Z,95137
2018-04-02T04:32:36.759Z,95136
2018-04-02T04:35:05.630Z,95138
2018-04-02T04:37:33.728Z,95142
2018-04-02T04:40:01.839Z,95130
2018-04-02T04:42:29.928Z,95132
2018-04-02T04:44:58.040Z,95131
2018-04-02T04:47:26.229Z,95130
2018-04-02T04:49:54.400Z,95131
2018-04-02T04:52:22.504Z,95130
2018-04-02T04:54:50.596Z,95125
2018-04-02T04:57:18.738Z,95128
2018-04-02T04:59:46.827Z,95132
2018-04-02T05:02:14.913Z,95129
2018-04-02T05:04:43.004Z,95132
2018-04-02T05:07:11.164Z,95127
2018-04-02T05:09:39.410Z,95125
2018-04-02T05:12:07.569Z,95123
2018-04-02T05:14:35.665Z,95118
2018-04-02T05:17:03.752Z,95125
2018-04-02T05:19:31.903Z,95126
2018-04-02T05:22:00.031Z,95121
2018-04-02T05:24:28.115Z,95119
2018-04-02T05:26:56.217Z,95114
2018-04-02T05:29:24.301Z,95114
2018-04-02T05:31:52.412Z,95107
2018-04-02T05:34:20.519Z,95116
2018-04-02T05:36:48.641Z,95110
2018-04-02T05:39:16.749Z,95110
2018-04-02T05:41:44.849Z,95106
2018-04-02T05:44:12.961Z,95121
2018-04-02T05:46:41.217Z,95113
2018-04-02T05:49:09.389Z,95108
2018-04-02T05:51:37.558Z,95110
2018-04-02T05:54:05.680Z,95120
2018-04-02T05:56:33.768Z,95108
2018-04-02T05:59:01.869Z,95114
2018-04-02T06:01:29.968Z,95116
2018-04-02T06:03:58.068Z,95109
2018-04-02T06:06:26.209Z,95103
2018-04-02T06:08:54.310Z,95115
2018-04-02T06:11:22.401Z,95108
2018-04-02T06:13:50.723Z,95104
2018-04-02T06:16:18.833Z,95107
2018-04-02T06:18:46.942Z,95109
2018-04-02T06:21:15.028Z,95105
2018-04-02T06:23:43.148Z,95110
2018-04-02T06:26:11.261Z,95108
2018-04-02T06:28:39.361Z,95110
2018-04-02T06:31:07.481Z,95114
2018-04-02T06:33:35.581Z,95114
2018-04-02T06:36:03.685Z,95103
2018-04-02T06:38:31.780Z,95107
2018-04-02T06:41:00.113Z,95102
2018-04-02T06:43:28.990Z,95104
2018-04-02T06:45:57.099Z,95113
2018-04-02T06:48:25.999Z,95106
2018-04-02T06:50:54.089Z,95099
2018-04-02T06:53:22.192Z,95101
2018-04-02T06:55:50.609Z,95100
2018-04-02T06:58:19.645Z,95096
2018-04-02T07:00:47.831Z,95084
2018-04-02T07:03:16.107Z,95094
2018-04-02T07:05:44.225Z,95088
2018-04-02T07:08:12.306Z,95085
2018-04-02T07:10:40.549Z,95083
2018-04-02T07:13:08.675Z,95095
2018-04-02T07:15:36.782Z,95084
2018-04-02T07:18:04.861Z,95087
2018-04-02T07:20:32.972Z,95087
2018-04-02T07:23:01.855Z,95075
2018-04-02T07:25:29.926Z,95071
2018-04-02T07:27:58.785Z,95073
2018-04-02T07:30:27.679Z,95074
2018-04-02T07:32:55.772Z,95075
2018-04-02T07:35:23.896Z,95072
2018-04-02T07:37:52.013Z,95077
2018-04-02T07:40:20.128Z,95070
2018-04-02T07:42:48.220Z,95079
2018-04-02T07:45:16.301Z,95081
2018-04-02T07:47:44.410Z,95064
2018-04-02T07:50:13.266Z,95073
2018-04-02T07:52:42.148Z,95060
2018-04-02T07:55:10.236Z,95059
2018-04-02T07:57:38.377Z,95058
2018-04-02T08:00:06.483Z,95059
2018-04-02T08:02:34.576Z,95071
2018-04-02T08:05:02.709Z,95058
2018-04-02T08:07:30.885Z,95068
2018-04-02T08:10:12.717Z,95062
2018-04-02T08:12:40.834Z,95068
2018-04-02T08:15:08.947Z,95065
2018-04-02T08:17:37.045Z,95069
2018-04-02T08:20:05.166Z,95071
2018-04-02T08:22:33.283Z,95078
2018-04-02T08:25:02.154Z,95070
2018-04-02T08:27:30.286Z,95055
2018-04-02T08:29:58.384Z,95062
2018-04-02T08:32:26.530Z,95066
2018-04-02T08:34:54.636Z,95064
2018-04-02T08:37:22.733Z,95065
2018-04-02T08:39:50.874Z,95064
2018-04-02T08:42:18.974Z,95054
2018-04-02T08:44:47.335Z,95062
2018-04-02T08:47:15.442Z,95077
2018-04-02T08:49:43.531Z,95058
2018-04-02T08:52:11.856Z,95063
2018-04-02T08:54:39.982Z,95062
2018-04-02T08:57:08.114Z,95055
2018-04-02T08:59:36.218Z,95061
2018-04-02T09:02:05.837Z,95055
2018-04-02T09:04:34.006Z,95063
2018-04-02T09:07:02.121Z,95052
2018-04-02T09:09:30.266Z,95053
2018-04-02T09:11:58.422Z,95056
2018-04-02T09:14:26.592Z,95044
2018-04-02T09:16:54.866Z,95047
2018-04-02T09:19:23.111Z,95049
2018-04-02T09:21:51.363Z,95047
2018-04-02T09:24:19.561Z,95051
2018-04-02T09:26:47.861Z,95037
2018-04-02T09:29:15.985Z,95036
2018-04-02T09:31:45.151Z,95034
2018-04-02T09:34:13.341Z,95037
2018-04-02T09:36:41.483Z,95024
2018-04-02T09:39:09.655Z,95016
2018-04-02T09:41:37.745Z,95015
2018-04-02T09:44:05.895Z,95007
2018-04-02T09:46:34.006Z,95001
2018-04-02T09:49:02.148Z,94996
2018-04-02T09:51:30.261Z,95004
2018-04-02T09:53:58.369Z,94994
2018-04-02T09:56:26.470Z,94998
2018-04-02T09:58:54.584Z,94997
2018-04-02T10:01:30.344Z,94989
2018-04-02T10:03:58.449Z,94987
2018-04-02T10:06:27.337Z,94976
2018-04-02T10:08:55.526Z,94974
2018-04-02T10:11:27.756Z,94973
2018-04-02T10:13:56.803Z,94969
2018-04-02T10:16:24.956Z,94964
2018-04-02T10:18:53.206Z,94958
2018-04-02T10:21:21.332Z,94956
2018-04-02T10:23:49.533Z,94953
2018-04-02T10:26:17.693Z,94949
2018-04-02T10:28:45.988Z,94951
2018-04-02T10:31:14.133Z,94946
2018-04-02T10:33:42.706Z,94946
2018-04-02T10:36:10.858Z,94936
2018-04-02T10:38:39.032Z,94930
2018-04-02T10:41:12.392Z,94933
2018-04-02T10:43:40.625Z,94923
2018-04-02T10:46:09.768Z,94922
2018-04-02T10:48:37.933Z,94921
2018-04-02T10:51:06.200Z,94925
2018-04-02T10:53:34.435Z,94919
2018-04-02T10:56:02.608Z,94911
2018-04-02T10:58:30.785Z,94908
2018-04-02T11:00:59.125Z,94902
2018-04-02T11:03:27.721Z,94902
2018-04-02T11:18:51.940Z,94886
2018-04-02T11:21:20.105Z,94880
2018-04-02T11:23:48.266Z,94880
2018-04-02T11:26:17.313Z,94868
2018-04-02T11:28:45.501Z,94874
2018-04-02T11:31:13.660Z,94863
2018-04-02T11:33:41.970Z,94858
2018-04-02T11:36:10.151Z,94857
2018-04-02T11:38:38.966Z,94857
2018-04-02T11:41:07.130Z,94849
2018-04-02T11:43:35.246Z,94850
2018-04-02T11:46:03.378Z,94845
2018-04-02T11:48:31.551Z,94843
2018-04-02T11:50:59.714Z,94851
2018-04-02T11:53:28.400Z,94844
2018-04-02T11:55:56.533Z,94841
2018-04-02T11:58:24.651Z,94835
2018-04-02T12:00:52.812Z,94841
2018-04-02T12:03:21.097Z,94827
2018-04-02T12:05:49.344Z,94838
2018-04-02T12:08:17.550Z,94836
2018-04-02T12:10:45.772Z,94831
2018-04-02T12:13:14.103Z,94832
2018-04-02T12:15:42.324Z,94822
2018-04-02T12:18:10.588Z,94820
2018-04-02T12:20:38.776Z,94816
2018-04-02T12:23:07.770Z,94807
2018-04-02T12:25:35.932Z,94800
2018-04-02T12:28:04.079Z,94807
2018-04-02T12:30:33.739Z,94804
2018-04-02T12:33:02.100Z,94800
2018-04-02T12:35:30.555Z,94796
2018-04-02T12:38:01.541Z,94800
2018-04-02T12:40:29.621Z,94787
2018-04-02T12:42:58.339Z,94790
2018-04-02T12:45:26.665Z,94791
2018-04-02T12:47:58.537Z,94782
2018-04-02T12:50:27.198Z,94774
2018-04-02T12:52:56.003Z,94779
2018-04-02T12:55:24.131Z,94781
2018-04-02T12:57:52.248Z,94771
2018-04-02T13:00:20.362Z,94776
2018-04-02T13:02:48.509Z,94771
2018-04-02T13:05:16.619Z,94776
2018-04-02T13:07:44.721Z,94775
2018-04-02T13:10:12.890Z,94776
2018-04-02T13:12:40.983Z,94767
2018-04-02T13:15:09.094Z,94768
2018-04-02T13:17:38.232Z,94762
2018-04-02T13:20:06.431Z,94757
2018-04-02T13:22:34.646Z,94762
2018-04-02T13:25:02.846Z,94756
2018-04-02T13:27:30.960Z,94757
2018-04-02T13:29:59.060Z,94747
2018-04-02T13:32:27.454Z,94743
2018-04-02T13:34:56.089Z,94735
2018-04-02T13:37:24.308Z,94738
2018-04-02T13:39:52.441Z,94741
2018-04-02T13:42:20.662Z,94737
2018-04-02T13:44:48.953Z,94729
2018-04-02T13:47:17.617Z,94726
2018-04-02T13:49:49.590Z,94729
2018-04-02T13:52:17.765Z,94731
2018-04-02T13:54:45.929Z,94726
2018-04-02T13:57:14.181Z,94727
2018-04-02T13:59:42.385Z,94726
2018-04-02T14:02:10.621Z,94718
2018-04-02T14:04:39.244Z,94720
2018-04-02T14:07:07.527Z,94709
2018-04-02T14:09:35.702Z,94711
2018-04-02T14:12:03.835Z,94713
2018-04-02T14:14:31.938Z,94703
2018-04-02T14:17:00.071Z,94693
2018-04-02T14:19:28.539Z,94690
2018-04-02T14:21:56.661Z,94690
2018-04-02T14:24:25.742Z,94690
2018-04-02T14:26:58.972Z,94680
2018-04-02T14:29:27.094Z,94683
2018-04-02T14:31:55.200Z,94682
2018-04-02T14:34:23.325Z,94680
2018-04-02T14:36:51.786Z,94684
2018-04-02T14:39:19.894Z,94683
2018-04-02T14:41:48.005Z,94673
2018-04-02T14:44:16.126Z,94662
2018-04-02T14:46:44.244Z,94662
2018-04-02T14:49:12.338Z,94668
2018-04-02T14:51:40.507Z,94671
2018-04-02T14:54:08.628Z,94658
2018-04-02T14:56:36.953Z,94665
2018-04-02T14:59:05.187Z,94659
2018-04-02T15:01:33.359Z,94662
2018-04-02T15:04:03.150Z,94659
2018-04-02T15:06:31.280Z,94663
2018-04-02T15:08:59.428Z,94659
2018-04-02T15:11:27.560Z,94656
2018-04-02T15:13:56.717Z,94656
2018-04-02T15:16:24.893Z,94653
2018-04-02T15:18:52.963Z,94649
2018-04-02T15:21:21.177Z,94644
2018-04-02T15:23:49.333Z,94643
2018-04-02T15:26:17.468Z,94643
2018-04-02T15:28:45.582Z,94636
2018-04-02T15:31:13.703Z,94630
2018-04-02T15:33:41.814Z,94635
2018-04-02T15:36:09.939Z,94634
2018-04-02T15:38:38.268Z,94641
2018-04-02T15:41:06.484Z,94632
2018-04-02T15:43:34.727Z,94635
2018-04-02T15:46:02.856Z,94625
2018-04-02T15:48:31.106Z,94629
2018-04-02T15:51:06.642Z,94626
2018-04-02T15:57:09.710Z,94628
2018-04-02T16:07:01.531Z,94618
2018-04-02T16:09:31.763Z,94612
2018-04-02T16:14:38.716Z,94612
2018-04-02T16:17:13.936Z,94603
2018-04-02T16:32:37.090Z,94607
2018-04-02T16:35:05.325Z,94599
2018-04-02T16:37:33.602Z,94605
2018-04-02T16:40:22.515Z,94606
2018-04-02T16:55:05.714Z,94595
2018-04-02T16:57:34.701Z,94597
2018-04-02T17:00:04.083Z,94593
2018-04-02T17:02:38.514Z,94594
2018-04-02T17:05:07.669Z,94587
2018-04-02T17:07:51.996Z,94583
2018-04-02T17:10:21.830Z,94592
2018-04-02T17:12:50.740Z,94581
2018-04-02T17:15:19.079Z,94580
2018-04-02T17:17:48.124Z,94565
2018-04-02T17:20:16.886Z,94570
2018-04-02T17:22:47.880Z,94563
2018-04-02T17:25:16.685Z,94566
2018-04-02T17:27:45.016Z,94563
2018-04-02T17:30:13.140Z,94565
2018-04-02T17:32:46.245Z,94571
2018-04-02T17:35:14.684Z,94566
2018-04-02T17:37:42.828Z,94575
2018-04-02T17:40:11.616Z,94570
2018-04-02T17:45:30.994Z,94573
2018-04-02T17:48:07.248Z,94573
2018-04-02T17:50:36.921Z,94562
2018-04-02T17:53:14.043Z,94569
2018-04-02T17:55:58.875Z,94572
2018-04-02T17:58:27.323Z,94561
2018-04-02T18:00:56.425Z,94576
2018-04-02T18:03:25.152Z,94570
2018-04-02T18:05:54.545Z,94558
2018-04-02T18:08:22.910Z,94568
2018-04-02T18:10:56.062Z,94565
2018-04-02T18:13:33.035Z,94570
2018-04-02T18:16:04.778Z,94564
2018-04-02T18:18:33.707Z,94573
2018-04-02T18:21:02.014Z,94575
2018-04-02T18:23:32.048Z,94582
2018-04-02T18:26:04.485Z,94573
2018-04-02T18:28:39.058Z,94576
2018-04-02T18:31:33.834Z,94584
2018-04-02T18:37:03.307Z,94584
2018-04-02T18:39:31.504Z,94592
2018-04-02T18:42:02.207Z,94593
2018-04-02T18:57:25.415Z,94605
2018-04-02T18:59:53.542Z,94603
2018-04-02T19:02:22.219Z,94615
2018-04-02T19:04:55.007Z,94617
2018-04-02T19:07:23.271Z,94620
2018-04-02T19:09:54.629Z,94622
2018-04-02T19:12:27.534Z,94617
2018-04-02T19:14:55.693Z,94616
2018-04-02T19:17:23.810Z,94622
2018-04-02T19:19:51.997Z,94620
2018-04-02T19:22:20.163Z,94616
2018-04-02T19:24:48.366Z,94623
2018-04-02T19:27:16.492Z,94601
2018-04-02T19:29:45.718Z,94606
2018-04-02T19:32:14.014Z,94615
2018-04-02T19:34:42.156Z,94600
2018-04-02T19:37:10.301Z,94598
2018-04-02T19:39:38.454Z,94599
2018-04-02T19:42:06.604Z,94598
2018-04-02T19:44:35.348Z,94599
2018-04-02T19:47:03.543Z,94600
2018-04-02T19:49:31.654Z,94604
2018-04-02T19:51:59.794Z,94606
2018-04-02T19:54:28.045Z,94598
2018-04-02T19:56:57.190Z,94582
2018-04-02T19:59:26.114Z,94588
2018-04-02T20:01:54.312Z,94574
2018-04-02T20:04:23.197Z,94569
2018-04-02T20:06:51.418Z,94563
2018-04-02T20:09:19.594Z,94561
2018-04-02T20:11:47.743Z,94550
2018-04-02T20:14:15.907Z,94556
2018-04-02T20:16:44.033Z,94555
2018-04-02T20:19:12.135Z,94552
2018-04-02T20:21:41.844Z,94555
2018-04-02T20:24:10.758Z,94560
2018-04-02T20:26:42.783Z,94553
2018-04-02T20:29:26.551Z,94546
2018-04-02T20:31:55.309Z,94535
2018-04-02T20:34:41.639Z,94542
2018-04-02T20:50:08.965Z,94564
2018-04-02T20:52:38.301Z,94550
2018-04-02T20:55:10.289Z,94553
2018-04-02T20:57:38.569Z,94547
2018-04-02T21:00:11.340Z,94538
2018-04-02T21:02:39.550Z,94540
2018-04-02T21:05:07.734Z,94539
2018-04-02T21:20:31.072Z,94540
2018-04-02T21:22:59.213Z,94532
2018-04-02T21:25:31.088Z,94542
2018-04-02T21:27:59.312Z,94534
2018-04-02T21:40:07.472Z,94534
2018-04-02T21:42:35.581Z,94536
2018-04-02T21:45:03.926Z,94542
2018-04-02T21:47:32.146Z,94549
2018-04-02T21:50:00.302Z,94540
2018-04-02T21:52:28.419Z,94544
2018-04-02T21:54:57.550Z,94540
2018-04-02T21:57:26.334Z,94525
2018-04-02T21:59:54.465Z,94530
2018-04-02T22:02:22.580Z,94521
2018-04-02T22:05:02.439Z,94528
2018-04-02T22:07:33.054Z,94517
2018-04-02T22:10:01.960Z,94510
2018-04-02T22:22:10.073Z,94508
2018-04-02T22:24:38.200Z,94508
2018-04-02T22:27:06.446Z,94504
2018-04-02T22:29:39.223Z,94502
2018-04-02T22:32:07.373Z,94494
2018-04-02T22:34:35.568Z,94498
2018-04-02T22:37:03.693Z,94482
2018-04-02T22:39:32.032Z,94473
2018-04-02T22:42:01.165Z,94469
2018-04-02T22:44:29.338Z,94469
2018-04-02T22:46:57.457Z,94464
2018-04-02T22:49:26.447Z,94478
2018-04-02T22:51:54.879Z,94471
2018-04-02T22:54:23.136Z,94460
2018-04-02T22:56:51.915Z,94461
2018-04-02T22:59:20.033Z,94469
2018-04-02T23:01:48.147Z,94459
2018-04-02T23:04:16.687Z,94457
2018-04-02T23:06:44.805Z,94466
2018-04-02T23:09:12.908Z,94466
2018-04-02T23:11:41.040Z,94466
2018-04-02T23:14:09.450Z,94459
2018-04-02T23:16:37.560Z,94456
2018-04-02T23:19:05.700Z,94467
2018-04-02T23:21:33.840Z,94464
2018-04-02T23:24:02.070Z,94459
2018-04-02T23:26:30.207Z,94458
2018-04-02T23:28:58.376Z,94459
2018-04-02T23:31:26.526Z,94454
2018-04-02T23:33:54.695Z,94468
2018-04-02T23:36:22.784Z,94462
2018-04-02T23:38:50.894Z,94449
2018-04-02T23:41:19.000Z,94449
2018-04-02T23:43:47.174Z,94448
2018-04-02T23:46:15.322Z,94455
2018-04-02T23:48:43.473Z,94458
2018-04-02T23:51:11.582Z,94450
2018-04-02T23:53:39.825Z,94455
2018-04-02T23:56:08.537Z,94463
2018-04-02T23:58:36.823Z,94459
